Observation Tools

Paper birch Photo courtesy of D.E. Herman, USDA-NRCS PLANTS Database.

Paper birch (Betula papyrifera)


Also Known As: Paperbark birch, Silver birch, Canoe birch
Plant Family: Birch (Betulaceae)
Project BudBurst Plant Group: Deciduous Trees and Shrubs

Identification Hints: Birches have flowers in small clusters (catkins) which hang from the branches and mature before leaves emerge. Paper birch has white, peeling bark but some western varieties can have brown or coppery bark.

Did you Know? "The sap and inner bark is used as emergency food. White birch can be tapped in the spring to obtain sap from whichbeer, syrup, wine or vinegar is made. The inner bark can be dried and ground into a meal and used as a thickener in soups or added to flour used in making bread. A tea is made from the root bark and young leaves of white birch. It was alsoused by native Americans to make canoes, buckets, and baskets. North American Indian tribes used white birch to treat skin problems of various rashes; skin sores, and burns."Prepared By Lincoln M. Moore at the USDA NRCS National Plant Data Center.


Live Map for Paper birch

Other years available for viewing:

Below you can view all observations that have been reported in for Paper birch (If the map below is empty then there have not been any observations reported.)

Use the navigation buttons on the left to zoom in/out and pan around. Click on each place marker to get detail information about that observation.

Leaf/Needles/Stalk = Leaf/Needles/Stalk Flower = Flower Pollen = Pollen Fruiting = Fruiting Color = Color

--Back to Top--

close help window button

The table below displays all the data that has been submitted to Project BudBurst. By default, the data is sorted by the date on which the phenophase occurred. Clicking the up and down arrows next to each column name allows you to sort on any value. If there have been more than 10 observations submitted, you can choose how many to display at a time using the "Show __ entries" control. You can also page through the data using the previous and next buttons at the bottom right of the table.

The Search box allows you to search all of the data. Searching by date, species, phenophase, etc. is easy—just start typing and the table will immediately change to contain only observations that contain your search phrase. Do you want to see only 2012 observations? Just type "2012" in the search box. Only want to see maples? Enter "Acer." You can combine searches, too! Searching for "acer 2012" will narrow your results to only the maples that were observed in 2012 (assuming that any observations exist, of course).

Once you have your results in the order desired, you can use any of the buttons above the search box to copy the results to the clipboard; save them as a text, or spreadsheet; or even print them from your browser!

Observational data for Paper birch:

help button
Date Contributor Common Name Species Phenophase Latitude Longitude Obs#
Thu Apr 10 00:00:00 GMT 2008 evecino Paper birch Betula papyrifera First Leaf 43.325800000000000 -72.034500000000000 1611
Wed Apr 23 00:00:00 GMT 2008 Lee Paper birch Betula papyrifera First Leaf 47.273100000000000 -69.327200000000000 2103
Wed Apr 23 00:00:00 GMT 2008 srstebbi Paper birch Betula papyrifera First Flower 43.020400000000000 -76.126700000000000 2265
Thu Apr 24 00:00:00 GMT 2008 salinangel Paper birch Betula papyrifera First Leaf 42.634900000000000 -71.674000000000000 2356
Fri Apr 25 00:00:00 GMT 2008 Patti Bayard Paper birch Betula papyrifera End of Flowering 38.755300000000000 -120.615000000000000 2397
Sun Apr 27 00:00:00 GMT 2008 salinangel Paper birch Betula papyrifera All Leaves Unfolded 42.634900000000000 -71.674000000000000 2429
Fri Apr 25 00:00:00 GMT 2008 srstebbi Paper birch Betula papyrifera First Leaf 43.020400000000000 -76.126700000000000 2537
Sun May 04 00:00:00 GMT 2008 rongyi Paper birch Betula papyrifera First Leaf 61.581700000000000 -149.465000000000000 2788
Mon May 05 00:00:00 GMT 2008 LEE Paper birch Betula papyrifera First Leaf 47.273100000000000 -69.327200000000000 2839
Mon May 05 00:00:00 GMT 2008 projectbud Paper birch Betula papyrifera First Leaf 44.937000000000000 -93.163100000000000 2955
Mon May 05 00:00:00 GMT 2008 LEE Paper birch Betula papyrifera First Flower 47.273100000000000 -69.327200000000000 3052
Thu May 08 00:00:00 GMT 2008 LEE Paper birch Betula papyrifera Full Flower 47.273100000000000 -69.327200000000000 3053
Tue May 13 00:00:00 GMT 2008 jsdeter Paper birch Betula papyrifera All Leaves Unfolded 44.342300000000000 -69.794000000000000 3542
Tue May 13 00:00:00 GMT 2008 Tracy Paper birch Betula papyrifera First Leaf 46.604700000000000 -120.614000000000000 3551
Tue May 13 00:00:00 GMT 2008 daveyount Paper birch Betula papyrifera First Flower 46.812800000000000 -92.056000000000000 3586
Mon May 05 00:00:00 GMT 2008 Patti Bayard Paper birch Betula papyrifera All Leaves Unfolded 38.755300000000000 -120.615000000000000 3686
Fri May 23 00:00:00 GMT 2008 LEE Paper birch Betula papyrifera First Leaf 47.273100000000000 -69.327200000000000 3866
Fri Apr 18 00:00:00 GMT 2008 Life Skills Class @FRHS Paper birch Betula papyrifera First Leaf 42.482900000000000 -72.605700000000000 3971
Wed Apr 23 00:00:00 GMT 2008 Life Skills Class @FRHS Paper birch Betula papyrifera All Leaves Unfolded 42.482900000000000 -72.605700000000000 3972
Mon Apr 20 00:00:00 GMT 2009 anonymous Paper birch Betula papyrifera First Leaf 41.812400000000000 -71.881000000000000 6181
Mon Apr 20 00:00:00 GMT 2009 cmeldrum Paper birch Betula papyrifera First Pollen 42.473500000000000 -83.374300000000000 6539
Sun Apr 26 00:00:00 GMT 2009 momck Paper birch Betula papyrifera First Pollen 40.064400000000000 -80.717900000000000 6634
Tue Apr 28 00:00:00 GMT 2009 momck Paper birch Betula papyrifera Full Pollen 40.064400000000000 -80.717900000000000 6763
Fri Apr 24 00:00:00 GMT 2009 palaback Paper birch Betula papyrifera Full Pollen 46.850000000000000 -113.983000000000000 6838
Wed Apr 29 00:00:00 GMT 2009 srstebbi Paper birch Betula papyrifera First Leaf 43.020400000000000 -76.126700000000000 6886
Fri May 01 00:00:00 GMT 2009 momck Paper birch Betula papyrifera End of Pollen 40.064400000000000 -80.717900000000000 6888
Fri Apr 24 00:00:00 GMT 2009 mjt06270 Paper birch Betula papyrifera First Pollen 43.629000000000000 -72.937100000000000 6897
Wed Apr 29 00:00:00 GMT 2009 mjt06270 Paper birch Betula papyrifera Full Pollen 43.629000000000000 -72.937100000000000 6898
Fri Apr 24 00:00:00 GMT 2009 mjt06270 Paper birch Betula papyrifera First Pollen 43.629000000000000 -72.937100000000000 6891
Wed Apr 29 00:00:00 GMT 2009 mjt06270 Paper birch Betula papyrifera Full Pollen 43.629000000000000 -72.937100000000000 6892
Fri May 01 00:00:00 GMT 2009 mjt06270 Paper birch Betula papyrifera First Leaf 43.629000000000000 -72.937100000000000 6893
Fri Apr 24 00:00:00 GMT 2009 mjt06270 Paper birch Betula papyrifera First Pollen 43.629000000000000 -72.937100000000000 6895
Wed Apr 29 00:00:00 GMT 2009 mjt06270 Paper birch Betula papyrifera Full Pollen 43.629000000000000 -72.937100000000000 6896
Sat Apr 25 00:00:00 GMT 2009 cmeldrum Paper birch Betula papyrifera Full Pollen 42.473500000000000 -83.374300000000000 6977
Tue Apr 28 00:00:00 GMT 2009 cmeldrum Paper birch Betula papyrifera First Leaf 42.473500000000000 -83.374300000000000 6978
Sun May 03 00:00:00 GMT 2009 momck Paper birch Betula papyrifera First Leaf 40.064400000000000 -80.717900000000000 7031
Tue May 05 00:00:00 GMT 2009 momck Paper birch Betula papyrifera All Leaves Unfolded 40.064400000000000 -80.717900000000000 7032
Thu May 07 00:00:00 GMT 2009 alarson Paper birch Betula papyrifera First Leaf 46.402500000000000 -94.463100000000000 7139
Thu May 07 00:00:00 GMT 2009 alarson Paper birch Betula papyrifera Full Pollen 46.402500000000000 -94.463100000000000 7138
Mon Apr 27 00:00:00 GMT 2009 anonymous Paper birch Betula papyrifera First Leaf 42.655400000000000 -71.542100000000000 7173
Fri May 08 00:00:00 GMT 2009 anonymous Paper birch Betula papyrifera All Leaves Unfolded 42.655400000000000 -71.542100000000000 7174
Mon Apr 27 00:00:00 GMT 2009 anonymous Paper birch Betula papyrifera First Leaf 42.655400000000000 -71.542100000000000 7175
Fri May 08 00:00:00 GMT 2009 anonymous Paper birch Betula papyrifera All Leaves Unfolded 42.655400000000000 -71.542100000000000 7176
Fri Apr 24 00:00:00 GMT 2009 cmeldrum Paper birch Betula papyrifera First Pollen 42.473500000000000 -83.374300000000000 7229
Tue Apr 28 00:00:00 GMT 2009 cmeldrum Paper birch Betula papyrifera Full Pollen 42.473500000000000 -83.374300000000000 7230
Sat May 02 00:00:00 GMT 2009 cmeldrum Paper birch Betula papyrifera End of Pollen 42.473500000000000 -83.374300000000000 7231
Sat May 09 00:00:00 GMT 2009 cmeldrum Paper birch Betula papyrifera All Leaves Unfolded 42.473500000000000 -83.374300000000000 7232
Thu Apr 16 00:00:00 GMT 2009 anonymous Paper birch Betula papyrifera First Pollen 45.153700000000000 -93.353000000000000 7252
Thu Apr 23 00:00:00 GMT 2009 anonymous Paper birch Betula papyrifera First Leaf 45.153700000000000 -93.353000000000000 7253
Sat May 09 00:00:00 GMT 2009 anonymous Paper birch Betula papyrifera All Leaves Unfolded 45.153700000000000 -93.353000000000000 7254
Wed Apr 22 00:00:00 GMT 2009 anonymous Paper birch Betula papyrifera First Pollen 45.153700000000000 -93.353000000000000 7258
Mon Apr 27 00:00:00 GMT 2009 anonymous Paper birch Betula papyrifera Full Pollen 45.153700000000000 -93.353000000000000 7259
Wed Apr 29 00:00:00 GMT 2009 anonymous Paper birch Betula papyrifera End of Pollen 45.153700000000000 -93.353000000000000 7260
Mon Apr 27 00:00:00 GMT 2009 anonymous Paper birch Betula papyrifera First Leaf 45.153700000000000 -93.353000000000000 7261
Fri May 08 00:00:00 GMT 2009 anonymous Paper birch Betula papyrifera All Leaves Unfolded 45.153700000000000 -93.353000000000000 7262
Fri Apr 24 00:00:00 GMT 2009 compobs Paper birch Betula papyrifera First Pollen 45.379400000000000 -93.076700000000000 7330
Sat May 02 00:00:00 GMT 2009 compobs Paper birch Betula papyrifera Full Pollen 45.379400000000000 -93.076700000000000 7331
Thu May 07 00:00:00 GMT 2009 compobs Paper birch Betula papyrifera First Leaf 45.379400000000000 -93.076700000000000 7332
Sun May 10 00:00:00 GMT 2009 palaback Paper birch Betula papyrifera First Leaf 46.866700000000000 -114.000000000000000 7425
Wed May 13 00:00:00 GMT 2009 palaback Paper birch Betula papyrifera End of Pollen 46.866700000000000 -114.000000000000000 7430
Sat May 16 00:00:00 GMT 2009 compobs Paper birch Betula papyrifera All Leaves Unfolded 45.379400000000000 -93.076700000000000 7555
Wed Sep 16 00:00:00 GMT 2009 momck Paper birch Betula papyrifera 50% Color 40.064400000000000 -80.717900000000000 8611
Sun Apr 26 00:00:00 GMT 2009 momck Paper birch Betula papyrifera First Pollen 40.064400000000000 -80.717900000000000 8619
Tue Apr 28 00:00:00 GMT 2009 momck Paper birch Betula papyrifera Full Pollen 40.064400000000000 -80.717900000000000 8620
Fri May 01 00:00:00 GMT 2009 momck Paper birch Betula papyrifera End of Pollen 40.064400000000000 -80.717900000000000 8621
Wed Sep 16 00:00:00 GMT 2009 momck Paper birch Betula papyrifera 50% Color 40.064400000000000 -80.717900000000000 8622
Sun Sep 27 00:00:00 GMT 2009 momck Paper birch Betula papyrifera 50% Leaf Fall 40.064400000000000 -80.717900000000000 8623
Sun May 03 00:00:00 GMT 2009 palaback Paper birch Betula papyrifera First Pollen 46.866700000000000 -114.000000000000000 8663
Wed May 13 00:00:00 GMT 2009 palaback Paper birch Betula papyrifera End of Pollen 46.866700000000000 -114.000000000000000 8664
Fri Apr 24 00:00:00 GMT 2009 palaback Paper birch Betula papyrifera Full Pollen 46.858900000000000 -113.985000000000000 8709
Thu May 07 00:00:00 GMT 2009 palaback Paper birch Betula papyrifera End of Pollen 46.858900000000000 -113.985000000000000 8710
Fri May 01 00:00:00 GMT 2009 palaback Paper birch Betula papyrifera First Leaf 46.858900000000000 -113.985000000000000 8711
Sat Oct 03 00:00:00 GMT 2009 palaback Paper birch Betula papyrifera 50% Color 46.840100000000000 -113.990000000000000 8683
Sun May 03 00:00:00 GMT 2009 palaback Paper birch Betula papyrifera Full Pollen 46.866700000000000 -114.000000000000000 8721
Wed May 13 00:00:00 GMT 2009 palaback Paper birch Betula papyrifera End of Pollen 46.866700000000000 -114.000000000000000 8722
Tue May 19 00:00:00 GMT 2009 palaback Paper birch Betula papyrifera All Leaves Unfolded 46.866700000000000 -114.000000000000000 8747
Sat May 16 00:00:00 GMT 2009 palaback Paper birch Betula papyrifera First Ripe Fruit 46.866700000000000 -114.000000000000000 8748
Thu Oct 08 00:00:00 GMT 2009 anonymous Paper birch Betula papyrifera 50% Color 44.475700000000000 -73.194100000000000 8761
Sun Oct 18 00:00:00 GMT 2009 palaback Paper birch Betula papyrifera 50% Color 46.866700000000000 -114.000000000000000 8790
Fri Apr 24 00:00:00 GMT 2009 palaback Paper birch Betula papyrifera Full Pollen 46.858900000000000 -113.985000000000000 8817
Wed May 13 00:00:00 GMT 2009 palaback Paper birch Betula papyrifera End of Pollen 46.858900000000000 -113.985000000000000 8818
Sat May 16 00:00:00 GMT 2009 palaback Paper birch Betula papyrifera First Ripe Fruit 46.858900000000000 -113.985000000000000 8819
Sun Oct 18 00:00:00 GMT 2009 palaback Paper birch Betula papyrifera 50% Color 46.858900000000000 -113.985000000000000 8820
Sun Oct 18 00:00:00 GMT 2009 palaback Paper birch Betula papyrifera 50% Color 46.850000000000000 -113.983000000000000 8810
Tue Nov 10 00:00:00 GMT 2009 tree Paper birch Betula papyrifera 50% Leaf Fall 40.614300000000000 -74.031700000000000 8929
Wed Mar 10 00:00:00 GMT 2010 balthazar Paper birch Betula papyrifera Full Pollen 45.323000000000000 -122.574000000000000 9145
Sat May 16 00:00:00 GMT 2009 anonymous Paper birch Betula papyrifera First Leaf 64.920000000000000 -148.270000000000000 9240
Tue May 19 00:00:00 GMT 2009 anonymous Paper birch Betula papyrifera All Leaves Unfolded 64.920000000000000 -148.270000000000000 9241
Tue Apr 06 00:00:00 GMT 2010 anonymous Paper birch Betula papyrifera First Leaf 42.113000000000000 -91.137000000000000 9467
Tue Apr 06 00:00:00 GMT 2010 cmeldrum Paper birch Betula papyrifera First Pollen 42.473500000000000 -83.374300000000000 9514
Sun Apr 11 00:00:00 GMT 2010 cmeldrum Paper birch Betula papyrifera Full Pollen 42.473500000000000 -83.374300000000000 9515
Sat Apr 17 00:00:00 GMT 2010 Derek McKay Paper birch Betula papyrifera First Pollen 45.317400000000000 -92.158900000000000 9944
Sat Apr 17 00:00:00 GMT 2010 Derek McKay Paper birch Betula papyrifera First Leaf 45.317400000000000 -92.158900000000000 9945
Sat Apr 17 00:00:00 GMT 2010 Derek McKay Paper birch Betula papyrifera First Pollen 45.317400000000000 -92.158900000000000 9950
Sat Apr 17 00:00:00 GMT 2010 Derek McKay Paper birch Betula papyrifera First Pollen 45.317400000000000 -92.158900000000000 9965
Sun Apr 18 00:00:00 GMT 2010 Derek McKay Paper birch Betula papyrifera Full Pollen 45.317400000000000 -92.158900000000000 9966
Sun Apr 25 00:00:00 GMT 2010 palaback Paper birch Betula papyrifera End of Pollen 46.858900000000000 -113.985000000000000 10100
Tue Apr 13 00:00:00 GMT 2010 palaback Paper birch Betula papyrifera First Leaf 46.858900000000000 -113.985000000000000 10101
Wed Apr 28 00:00:00 GMT 2010 palaback Paper birch Betula papyrifera All Leaves Unfolded 46.858900000000000 -113.985000000000000 10186
Fri Apr 30 00:00:00 GMT 2010 Bobcats Paper birch Betula papyrifera First Pollen 46.206000000000000 -85.757000000000000 10224
Fri Apr 30 00:00:00 GMT 2010 Bobcats Paper birch Betula papyrifera Full Pollen 46.206000000000000 -85.757000000000000 10225
Fri Apr 30 00:00:00 GMT 2010 Bobcats Paper birch Betula papyrifera First Leaf 46.206000000000000 -85.757000000000000 10226
Fri Apr 30 00:00:00 GMT 2010 Bobcats Paper birch Betula papyrifera First Pollen 46.206000000000000 -85.757000000000000 10335
Wed May 05 00:00:00 GMT 2010 Bobcats Paper birch Betula papyrifera Full Pollen 46.206000000000000 -85.757000000000000 10336
Wed May 05 00:00:00 GMT 2010 Bobcats Paper birch Betula papyrifera All Leaves Unfolded 46.206000000000000 -85.757000000000000 10337
Tue May 04 00:00:00 GMT 2010 Derek McKay Paper birch Betula papyrifera All Leaves Unfolded 45.317400000000000 -92.158900000000000 10331
Sat Apr 17 00:00:00 GMT 2010 palaback Paper birch Betula papyrifera Full Pollen 46.840100000000000 -113.990000000000000 10869
Sun Apr 25 00:00:00 GMT 2010 palaback Paper birch Betula papyrifera End of Pollen 46.840100000000000 -113.990000000000000 10870
Wed Apr 28 00:00:00 GMT 2010 palaback Paper birch Betula papyrifera All Leaves Unfolded 46.840100000000000 -113.990000000000000 10871
Mon Oct 04 00:00:00 GMT 2010 Derek McKay Paper birch Betula papyrifera 50% Leaf Fall 45.317400000000000 -92.158900000000000 11340
Mon Oct 25 00:00:00 GMT 2010 this Paper birch Betula papyrifera 50% Color 39.984700000000000 -105.268000000000000 11378
Mon Mar 21 00:00:00 GMT 2011 klaiello Paper birch Betula papyrifera First Flower 39.163700000000000 -86.528500000000000 11973
Sun Apr 17 00:00:00 GMT 2011 mglade Paper birch Betula papyrifera First Leaf 39.168200000000000 -86.493600000000000 12124
Mon May 02 00:00:00 GMT 2011 daboot_24 Paper birch Betula papyrifera First Leaf 44.548900000000000 -70.451500000000000 12260
Mon May 02 00:00:00 GMT 2011 daboot_24 Paper birch Betula papyrifera Full Flower 44.548900000000000 -70.451500000000000 12261
Thu Apr 28 00:00:00 GMT 2011 ksipowicz_Environmental_Science_reporter12 Paper birch Betula papyrifera First Leaf 42.130400000000000 -88.024000000000000 12522
Sun May 01 00:00:00 GMT 2011 ksipowicz_Environmental_Science_reporter12 Paper birch Betula papyrifera All Leaves Unfolded 42.130400000000000 -88.024000000000000 12523
Fri May 06 00:00:00 GMT 2011 ksipowicz_Environmental_Science_reporter12 Paper birch Betula papyrifera First Flower 42.130400000000000 -88.024000000000000 12524
Fri May 13 00:00:00 GMT 2011 ksipowicz_Environmental_Science_reporter12 Paper birch Betula papyrifera Full Flower 42.130400000000000 -88.024000000000000 12525
Sun May 15 00:00:00 GMT 2011 Derek McKay Paper birch Betula papyrifera First Leaf 45.317400000000000 -92.158900000000000 12560
Sat May 07 00:00:00 GMT 2011 Derek McKay Paper birch Betula papyrifera First Flower 45.317400000000000 -92.158900000000000 12594
Tue May 10 00:00:00 GMT 2011 Derek McKay Paper birch Betula papyrifera Full Flower 45.317400000000000 -92.158900000000000 12595
Thu May 19 00:00:00 GMT 2011 Derek McKay Paper birch Betula papyrifera All Leaves Unfolded 45.317400000000000 -92.158900000000000 12596
Mon Apr 18 00:00:00 GMT 2011 ksipowicz_Environmental_Science_reporter3 Paper birch Betula papyrifera First Flower 42.130400000000000 -88.024000000000000 12612
Mon May 09 00:00:00 GMT 2011 ksipowicz_Environmental_Science_reporter3 Paper birch Betula papyrifera All Leaves Unfolded 42.130400000000000 -88.024000000000000 12613
Mon May 02 00:00:00 GMT 2011 ksipowicz_Environmental_Science_reporter3 Paper birch Betula papyrifera First Leaf 42.130400000000000 -88.024000000000000 12650
Mon Apr 18 00:00:00 GMT 2011 ksipowicz_Environmental_Science_reporter3 Paper birch Betula papyrifera First Flower 42.130400000000000 -88.024000000000000 12651
Thu Apr 28 00:00:00 GMT 2011 ksipowicz_Environmental_Science_reporter3 Paper birch Betula papyrifera Full Flower 42.130400000000000 -88.024000000000000 12652
Thu Apr 07 00:00:00 GMT 2011 lletellier_B-_Period_reporter6 Paper birch Betula papyrifera First Leaf 42.146500000000000 -72.605000000000000 12758
Thu Apr 28 00:00:00 GMT 2011 lletellier_B-_Period_reporter6 Paper birch Betula papyrifera All Leaves Unfolded 42.146500000000000 -72.605000000000000 12759
Fri May 06 00:00:00 GMT 2011 lletellier_B-_Period_reporter6 Paper birch Betula papyrifera 50% Color 42.146500000000000 -72.605000000000000 12760
Thu Apr 28 00:00:00 GMT 2011 hleung Paper birch Betula papyrifera First Leaf 43.000000000000000 -72.000000000000000 12934
Mon May 09 00:00:00 GMT 2011 hleung Paper birch Betula papyrifera All Leaves Unfolded 43.000000000000000 -72.000000000000000 12935
Mon Sep 19 00:00:00 GMT 2011 ar13l Paper birch Betula papyrifera Leaves Changing Color (Middle) 61.173800000000000 -149.938000000000000 13298
Thu Sep 22 00:00:00 GMT 2011 kgeish Paper birch Betula papyrifera Leaves Changing Color (Early) 43.214000000000000 -89.371300000000000 13376
Thu Sep 22 00:00:00 GMT 2011 kgeish Paper birch Betula papyrifera Leaves Changing Color (Early) 43.214000000000000 -89.371300000000000 13377
Thu Sep 22 00:00:00 GMT 2011 janet_jorgenson@fws.gov Paper birch Betula papyrifera Fruit (Middle) 64.837200000000000 -147.708000000000000 13393
Thu Sep 22 00:00:00 GMT 2011 janet_jorgenson@fws.gov Paper birch Betula papyrifera Leaves Dropping (Middle) 64.837200000000000 -147.708000000000000 13399
Mon Aug 22 00:00:00 GMT 2011 janet_jorgenson@fws.gov Paper birch Betula papyrifera Leaves Changing Color (Late) 64.837200000000000 -147.708000000000000 13398
Sun Sep 25 00:00:00 GMT 2011 judyfich Paper birch Betula papyrifera Leaves Changing Color (Early) 42.337500000000000 -71.237100000000000 13427
Wed Sep 28 00:00:00 GMT 2011 palaback Paper birch Betula papyrifera Leaves Changing Color (Early) 40.301400000000000 -105.084000000000000 13482
Thu Oct 06 00:00:00 GMT 2011 palaback Paper birch Betula papyrifera Leaves Changing Color (Early) 41.708500000000000 -74.226000000000000 13527
Mon Oct 10 00:00:00 GMT 2011 palaback Paper birch Betula papyrifera Leaves Changing Color (Middle) 43.402500000000000 -72.071700000000000 13536
Mon Oct 10 00:00:00 GMT 2011 palaback Paper birch Betula papyrifera Leaves Changing Color (Middle) 43.000000000000000 -72.095800000000000 13540
Tue Oct 11 00:00:00 GMT 2011 palaback Paper birch Betula papyrifera Leaves Changing Color (Late) 43.301600000000000 -71.866300000000000 13625
Tue Oct 11 00:00:00 GMT 2011 palaback Paper birch Betula papyrifera Leaves Dropping (Middle) 43.383200000000000 -71.857200000000000 13629
Tue Oct 11 00:00:00 GMT 2011 palaback Paper birch Betula papyrifera Leaves Dropping (Early) 43.351200000000000 -72.040300000000000 13616
Tue Oct 11 00:00:00 GMT 2011 palaback Paper birch Betula papyrifera Leaves Dropping (Middle) 43.351200000000000 -72.040300000000000 13619
Tue Oct 11 00:00:00 GMT 2011 palaback Paper birch Betula papyrifera Leaves Changing Color (Late) 43.351200000000000 -72.040300000000000 13615
Fri Dec 04 00:00:00 GMT 2015 palaback Paper birch Betula papyrifera Leaves Changing Color (Late) 43.383200000000000 -71.857200000000000 13630
Wed Sep 14 00:00:00 GMT 2011 sharonlamar Paper birch Betula papyrifera 50% Color 48.038900000000000 -114.047000000000000 13674
Thu Oct 13 00:00:00 GMT 2011 palaback Paper birch Betula papyrifera Leaves Changing Color (Middle) 43.363500000000000 -72.094500000000000 13679
Tue Apr 26 00:00:00 GMT 2011 palaback Paper birch Betula papyrifera First Leaf 40.307500000000000 -105.084000000000000 13695
Thu Oct 20 00:00:00 GMT 2011 palaback Paper birch Betula papyrifera 50% Color 40.307500000000000 -105.084000000000000 13696
Sun Nov 13 00:00:00 GMT 2011 palaback Paper birch Betula papyrifera 50% Leaf Fall 40.307500000000000 -105.084000000000000 13847
Sun Mar 18 00:00:00 GMT 2012 casakach Paper birch Betula papyrifera First Leaf 38.910500000000000 -77.163200000000000 14492
Tue Mar 27 00:00:00 GMT 2012 skaffl Paper birch Betula papyrifera First Leaf 42.000000000000000 -71.000000000000000 14551
Mon Apr 09 00:00:00 GMT 2012 casakach Paper birch Betula papyrifera All Leaves Unfolded 38.910500000000000 -77.163200000000000 14857
Mon Apr 09 00:00:00 GMT 2012 palaback Paper birch Betula papyrifera First Leaf 40.307500000000000 -105.084000000000000 14872
Thu Apr 05 00:00:00 GMT 2012 palaback Paper birch Betula papyrifera First Flower 40.307500000000000 -105.084000000000000 14873
Mon Apr 09 00:00:00 GMT 2012 palaback Paper birch Betula papyrifera Full Flower 40.307500000000000 -105.084000000000000 14874
Tue Apr 17 00:00:00 GMT 2012 pasaqodyindian Paper birch Betula papyrifera Leaves Unfolding (Middle) 44.475000000000000 -73.198800000000000 15045
Tue Apr 17 00:00:00 GMT 2012 lakefleetrunner Paper birch Betula papyrifera Leaves Unfolding (Middle) 44.460000000000000 -73.198000000000000 15081
Mon Apr 16 00:00:00 GMT 2012 MrWaters Paper birch Betula papyrifera First Leaf 43.844300000000000 -89.120600000000000 15220
Wed Apr 25 00:00:00 GMT 2012 MeANS1 Paper birch Betula papyrifera First Flower 44.685200000000000 -69.632600000000000 15239
Thu May 03 00:00:00 GMT 2012 MeANS1 Paper birch Betula papyrifera First Leaf 44.685200000000000 -69.632600000000000 15428
Thu May 03 00:00:00 GMT 2012 MeANS1 Paper birch Betula papyrifera All Leaves Unfolded 44.685200000000000 -69.632600000000000 15429
Thu May 03 00:00:00 GMT 2012 MeANS1 Paper birch Betula papyrifera 50% Color 44.685200000000000 -69.632600000000000 15430
Sun Apr 15 00:00:00 GMT 2012 alyssa_henry Paper birch Betula papyrifera First Leaf 42.303800000000000 -71.157600000000000 15459
Tue Apr 24 00:00:00 GMT 2012 alyssa_henry Paper birch Betula papyrifera All Leaves Unfolded 42.303800000000000 -71.157600000000000 15460
Mon May 07 00:00:00 GMT 2012 snewman14 Paper birch Betula papyrifera Leaves Unfolding (Late) 44.133900000000000 -90.187000000000000 15525
Tue May 15 00:00:00 GMT 2012 Bobcats Paper birch Betula papyrifera First Leaf 46.206000000000000 -85.757000000000000 15638
Tue May 15 00:00:00 GMT 2012 Bobcats Paper birch Betula papyrifera All Leaves Unfolded 46.206000000000000 -85.757000000000000 15639
Wed May 16 00:00:00 GMT 2012 tkperry Paper birch Betula papyrifera Fruit (Middle) 43.960000000000000 -74.164900000000000 15657
Wed May 16 00:00:00 GMT 2012 tkperry Paper birch Betula papyrifera Leaves Unfolding (Middle) 43.960000000000000 -74.164900000000000 15658
Wed May 16 00:00:00 GMT 2012 smmuller09 Paper birch Betula papyrifera Leaves Unfolding (Middle) 43.584300000000000 -74.112200000000000 15653
Tue May 15 00:00:00 GMT 2012 elygrade2 Paper birch Betula papyrifera Leaves Unfolding (Late) 47.900000000000000 -91.900000000000000 15727
Thu May 17 00:00:00 GMT 2012 elygrade2 Paper birch Betula papyrifera Leaves Unfolding (Middle) 47.900000000000000 -91.900000000000000 15759
Wed Feb 15 00:00:00 GMT 2012 Randall.Miller@fcps.edu Paper birch Betula papyrifera First Leaf 38.837600000000000 -77.139200000000000 15784
Thu Apr 05 00:00:00 GMT 2012 Randall.Miller@fcps.edu Paper birch Betula papyrifera All Leaves Unfolded 38.837600000000000 -77.139200000000000 15785
Tue Sep 04 00:00:00 GMT 2012 emmahaggarty18 Paper birch Betula papyrifera Leaves Dropping (Middle) 46.345600000000000 -85.945300000000000 16451
Thu Sep 20 00:00:00 GMT 2012 Cheryloakes50 Paper birch Betula papyrifera 50% Color 43.319600000000000 -70.589800000000000 16736
Wed Oct 10 00:00:00 GMT 2012 bandjnewman Paper birch Betula papyrifera Leaves Dropping (Late) 46.810800000000000 -90.818200000000000 17030
Sun Oct 21 00:00:00 GMT 2012 PCILAINSLIE Paper birch Betula papyrifera 50% Color 41.971000000000000 -87.700500000000000 17054
Mon Oct 29 00:00:00 GMT 2012 PCILAINSLIE Paper birch Betula papyrifera 50% Leaf Fall 41.971000000000000 -87.700500000000000 17436
Wed Mar 13 00:00:00 GMT 2013 fmassy_E._O._Smith_reporter8 Paper birch Betula papyrifera Bud Burst 41.801200000000000 -72.241800000000000 18152
Wed Mar 13 00:00:00 GMT 2013 fmassy_E._O._Smith_reporter6 Paper birch Betula papyrifera Bud Burst 41.801200000000000 -72.241800000000000 18147
Wed Mar 13 00:00:00 GMT 2013 fmassy_E._O._Smith_reporter7 Paper birch Betula papyrifera Bud Burst 41.801200000000000 -72.241800000000000 18145
Tue Mar 26 00:00:00 GMT 2013 emily_13 Paper birch Betula papyrifera Leaves Unfolding (Early) 39.785800000000000 -77.043000000000000 18347
Tue Mar 26 00:00:00 GMT 2013 emily_13 Paper birch Betula papyrifera Leaves Unfolding (Early) 39.785800000000000 -77.043000000000000 18348
Tue Mar 12 00:00:00 GMT 2013 jencody Paper birch Betula papyrifera Bud Burst 40.804600000000000 -77.920000000000000 18426
Sun Mar 31 00:00:00 GMT 2013 mglassey Paper birch Betula papyrifera Bud Burst 39.167300000000000 -86.511900000000000 18567
Mon Apr 08 00:00:00 GMT 2013 kingd_BHS_reporter1 Paper birch Betula papyrifera Bud Burst 42.936500000000000 -71.515700000000000 18648
Fri Apr 05 00:00:00 GMT 2013 fmassy_E._O._Smith_reporter2 Paper birch Betula papyrifera Bud Burst 41.801200000000000 -72.241800000000000 18654
Fri Apr 05 00:00:00 GMT 2013 fmassy_E._O._Smith_reporter2 Paper birch Betula papyrifera 50% Color 41.801200000000000 -72.241800000000000 18655
Sun Apr 07 00:00:00 GMT 2013 kingd_BHS_reporter12 Paper birch Betula papyrifera Bud Burst 42.936500000000000 -71.515700000000000 18669
Thu Apr 11 00:00:00 GMT 2013 lockene Paper birch Betula papyrifera Bud Burst 42.344600000000000 -71.123300000000000 18800
Fri Apr 19 00:00:00 GMT 2013 fmassy_E._O._Smith_reporter2 Paper birch Betula papyrifera First Leaf 41.801200000000000 -72.241800000000000 19017
Mon Apr 15 00:00:00 GMT 2013 PCILAINSLIE Paper birch Betula papyrifera Bud Burst 41.971000000000000 -87.700500000000000 19086
Sun Apr 21 00:00:00 GMT 2013 mpgooley Paper birch Betula papyrifera Bud Burst 42.358800000000000 -71.250500000000000 19095
Mon Apr 22 00:00:00 GMT 2013 Prisms Paper birch Betula papyrifera All Leaves Unfolded 42.376400000000000 -72.706000000000000 19463
Fri Apr 26 00:00:00 GMT 2013 Prisms Paper birch Betula papyrifera Bud Burst 42.376400000000000 -72.706000000000000 19472
Mon Apr 29 00:00:00 GMT 2013 Prisms Paper birch Betula papyrifera First Leaf 42.376400000000000 -72.706000000000000 19473
Mon Apr 29 00:00:00 GMT 2013 Prisms Paper birch Betula papyrifera Bud Burst 42.375900000000000 -72.705500000000000 19475
Wed May 01 00:00:00 GMT 2013 Prisms Paper birch Betula papyrifera First Leaf 42.375900000000000 -72.705500000000000 19476
Mon Apr 29 00:00:00 GMT 2013 Prisms Paper birch Betula papyrifera All Leaves Unfolded 42.375900000000000 -72.705500000000000 19513
Thu Apr 25 00:00:00 GMT 2013 lockene Paper birch Betula papyrifera All Leaves Unfolded 42.344600000000000 -71.123300000000000 19563
Thu Apr 25 00:00:00 GMT 2013 lockene Paper birch Betula papyrifera First Flower 42.344600000000000 -71.123300000000000 19564
Thu May 02 00:00:00 GMT 2013 dmusto13 Paper birch Betula papyrifera Leaves Unfolding (Late) 42.795600000000000 -71.323000000000000 19568
Thu May 02 00:00:00 GMT 2013 mycitizenscience2013 Paper birch Betula papyrifera Leaves Unfolding (Early) 41.672900000000000 -72.641600000000000 19569
Mon Apr 22 00:00:00 GMT 2013 cwadswor Paper birch Betula papyrifera First Flower 42.961900000000000 -76.211500000000000 19713
Thu Apr 25 00:00:00 GMT 2013 cwadswor Paper birch Betula papyrifera Full Flower 42.961900000000000 -76.211500000000000 19714
Thu May 02 00:00:00 GMT 2013 MiddleburyBio140 Paper birch Betula papyrifera Leaves Unfolding (Late) 43.998100000000000 -73.174500000000000 19722
Sun May 05 00:00:00 GMT 2013 MiddleburyBio140 Paper birch Betula papyrifera Leaves Unfolding (Late) 43.998100000000000 -73.174500000000000 19727
Sun May 05 00:00:00 GMT 2013 MiddleburyBio140 Paper birch Betula papyrifera Leaves Unfolding (Late) 43.998100000000000 -73.174500000000000 19746
Sun May 05 00:00:00 GMT 2013 MiddleburyBio140 Paper birch Betula papyrifera Leaves Unfolding (Late) 43.998100000000000 -73.174500000000000 19743
Mon Apr 22 00:00:00 GMT 2013 cshlax44 Paper birch Betula papyrifera Bud Burst 41.750900000000000 -72.691900000000000 19765
Mon Apr 22 00:00:00 GMT 2013 cshlax44 Paper birch Betula papyrifera Bud Burst 41.750900000000000 -72.691900000000000 19766
Sun May 05 00:00:00 GMT 2013 MiddleburyBio140 Paper birch Betula papyrifera Leaves Unfolding (Late) 43.998100000000000 -73.174500000000000 19842
Fri Apr 05 00:00:00 GMT 2013 klee3 Paper birch Betula papyrifera Bud Burst 41.749100000000000 -72.692400000000000 19858
Mon May 06 00:00:00 GMT 2013 MiddleburyBio140 Paper birch Betula papyrifera Leaves Unfolding (Late) 43.998100000000000 -73.174500000000000 20123
Mon May 13 00:00:00 GMT 2013 lockene Paper birch Betula papyrifera Full Fruiting 42.344600000000000 -71.123300000000000 20414
Tue May 07 00:00:00 GMT 2013 lockene Paper birch Betula papyrifera Full Flower 42.344600000000000 -71.123300000000000 20412
Mon May 13 00:00:00 GMT 2013 lockene Paper birch Betula papyrifera First Ripe Fruit 42.344600000000000 -71.123300000000000 20413
Tue May 28 00:00:00 GMT 2013 bellabellass2013 Paper birch Betula papyrifera Leaves Dropping (Early) 41.362800000000000 -72.905200000000000 20791
Sat May 04 00:00:00 GMT 2013 libbyellwood Paper birch Betula papyrifera First Leaf 42.307400000000000 -71.120800000000000 20829
Sat May 04 00:00:00 GMT 2013 everillp Paper birch Betula papyrifera Leaves Unfolding (Middle) 42.301200000000000 -71.112100000000000 20834
Mon Apr 29 00:00:00 GMT 2013 SalladeScience_SRHS_Outdoor_Classroom_reporter6 Paper birch Betula papyrifera All Leaves Unfolded 42.912300000000000 -71.069700000000000 20961
Fri Oct 11 00:00:00 GMT 2013 Candycebbg Paper birch Betula papyrifera Leaves Changing Color (Early) 40.667500000000000 -73.964900000000000 22563
Fri Oct 11 00:00:00 GMT 2013 Candycebbg Paper birch Betula papyrifera Leaves Changing Color (Early) 40.667500000000000 -73.964900000000000 22562
Wed Oct 23 00:00:00 GMT 2013 mcfaddjm_Charlemagne_Elementary_School_reporter9 Paper birch Betula papyrifera First Ripe Fruit 43.999200000000000 -123.081000000000000 22775
Tue Oct 22 00:00:00 GMT 2013 mcfaddjm_Charlemagne_Elementary_School_reporter9 Paper birch Betula papyrifera 50% Color 43.999200000000000 -123.081000000000000 22776
Mon Oct 28 00:00:00 GMT 2013 Budburstastor303 Paper birch Betula papyrifera 50% Color 42.045600000000000 -87.691100000000000 22824
Sat Oct 19 00:00:00 GMT 2013 Candycebbg Paper birch Betula papyrifera 50% Color 40.667600000000000 -73.963200000000000 22903
Wed Nov 06 00:00:00 GMT 2013 Budburstastor303 Paper birch Betula papyrifera 50% Leaf Fall 42.045600000000000 -87.691100000000000 23018
Fri Mar 11 00:00:00 GMT 2016 avand286 Paper birch Betula papyrifera Bud Burst 44.545402000000000 -88.097305000000000 62459
Tue Mar 01 00:00:00 GMT 2016 ashhansbury Paper birch Betula papyrifera Bud Burst 39.168300000000000 -86.518600000000000 63991
Tue Apr 05 00:00:00 GMT 2016 Hannahcuw Paper birch Betula papyrifera Leaves Unfolding (None) 43.258206000000000 -87.917404000000000 64797
Tue Apr 05 00:00:00 GMT 2016 Hannahcuw Paper birch Betula papyrifera Leaves Changing Color (None) 43.258206000000000 -87.917404000000000 64798
Tue Apr 05 00:00:00 GMT 2016 Hannahcuw Paper birch Betula papyrifera Leaves Dropping (None) 43.258206000000000 -87.917404000000000 64799
Tue Apr 05 00:00:00 GMT 2016 Hannahcuw Paper birch Betula papyrifera Flowers (None) 43.258206000000000 -87.917404000000000 64800
Tue Apr 05 00:00:00 GMT 2016 Hannahcuw Paper birch Betula papyrifera Fruit (None) 43.258206000000000 -87.917404000000000 64801
Tue Apr 19 00:00:00 GMT 2016 Hannahcuw Paper birch Betula papyrifera Leaves Unfolding (None) 43.258206000000000 -87.917404000000000 64802
Tue Apr 19 00:00:00 GMT 2016 Hannahcuw Paper birch Betula papyrifera Leaves Changing Color (None) 43.258206000000000 -87.917404000000000 64803
Tue Apr 19 00:00:00 GMT 2016 Hannahcuw Paper birch Betula papyrifera Leaves Dropping (None) 43.258206000000000 -87.917404000000000 64804
Tue Apr 19 00:00:00 GMT 2016 Hannahcuw Paper birch Betula papyrifera Flowers (None) 43.258206000000000 -87.917404000000000 64805
Tue Apr 19 00:00:00 GMT 2016 Hannahcuw Paper birch Betula papyrifera Fruit (None) 43.258206000000000 -87.917404000000000 64806
Tue Apr 19 00:00:00 GMT 2016 abbyangelroth Paper birch Betula papyrifera Leaves Unfolding (None) 43.254412000000000 -87.912885000000000 64821
Tue Apr 19 00:00:00 GMT 2016 abbyangelroth Paper birch Betula papyrifera Leaves Changing Color (None) 43.254412000000000 -87.912885000000000 64822
Tue Apr 19 00:00:00 GMT 2016 abbyangelroth Paper birch Betula papyrifera Leaves Dropping (None) 43.254412000000000 -87.912885000000000 64823
Tue Apr 19 00:00:00 GMT 2016 abbyangelroth Paper birch Betula papyrifera Flowers (None) 43.254412000000000 -87.912885000000000 64824
Tue Apr 19 00:00:00 GMT 2016 abbyangelroth Paper birch Betula papyrifera Fruit (None) 43.254412000000000 -87.912885000000000 64825
Wed Apr 27 00:00:00 GMT 2016 MolleyDoyle Paper birch Betula papyrifera Leaves Unfolding (Early) 40.117171000000000 -75.110560000000000 65646
Wed Apr 27 00:00:00 GMT 2016 MolleyDoyle Paper birch Betula papyrifera Leaves Changing Color (None) 40.117171000000000 -75.110560000000000 65647
Wed Apr 27 00:00:00 GMT 2016 MolleyDoyle Paper birch Betula papyrifera Leaves Dropping (None) 40.117171000000000 -75.110560000000000 65648
Wed Apr 27 00:00:00 GMT 2016 MolleyDoyle Paper birch Betula papyrifera Flowers (None) 40.117171000000000 -75.110560000000000 65649
Wed Apr 27 00:00:00 GMT 2016 MolleyDoyle Paper birch Betula papyrifera Fruit (None) 40.117171000000000 -75.110560000000000 65650
Mon May 09 00:00:00 GMT 2016 rematzke1s Paper birch Betula papyrifera Bud Burst 44.056659000000000 -89.827158000000000 66964
Fri May 13 00:00:00 GMT 2016 laurenjsmith Paper birch Betula papyrifera Leaves Unfolding (Early) 42.932642000000000 -71.566304000000000 67055
Fri May 13 00:00:00 GMT 2016 laurenjsmith Paper birch Betula papyrifera Leaves Changing Color (Early) 42.932642000000000 -71.566304000000000 67056
Fri May 13 00:00:00 GMT 2016 laurenjsmith Paper birch Betula papyrifera Leaves Dropping (None) 42.932642000000000 -71.566304000000000 67057
Fri May 13 00:00:00 GMT 2016 laurenjsmith Paper birch Betula papyrifera Flowers (None) 42.932642000000000 -71.566304000000000 67058
Fri May 13 00:00:00 GMT 2016 laurenjsmith Paper birch Betula papyrifera Fruit (None) 42.932642000000000 -71.566304000000000 67059
Thu Apr 07 00:00:00 GMT 2016 cexantus_DeWitt_Middle_School_reporter67 Paper birch Betula papyrifera Bud Burst 42.475340000000000 -76.468270000000000 68387
Fri Apr 15 00:00:00 GMT 2016 cexantus_DeWitt_Middle_School_reporter67 Paper birch Betula papyrifera First Leaf 42.475340000000000 -76.468270000000000 68388
Thu May 12 00:00:00 GMT 2016 cexantus_DeWitt_Middle_School_reporter67 Paper birch Betula papyrifera All Leaves Unfolded 42.475340000000000 -76.468270000000000 68389
Tue May 03 00:00:00 GMT 2016 cexantus_DeWitt_Middle_School_reporter67 Paper birch Betula papyrifera First Flower 42.475340000000000 -76.468270000000000 68390
Thu May 12 00:00:00 GMT 2016 cexantus_DeWitt_Middle_School_reporter67 Paper birch Betula papyrifera Full Flower 42.475340000000000 -76.468270000000000 68391
Tue May 03 00:00:00 GMT 2016 cexantus_DeWitt_Middle_School_reporter67 Paper birch Betula papyrifera First Ripe Fruit 42.475340000000000 -76.468270000000000 68392
Thu May 12 00:00:00 GMT 2016 cexantus_DeWitt_Middle_School_reporter67 Paper birch Betula papyrifera Full Fruiting 42.475340000000000 -76.468270000000000 68393
Thu Apr 07 00:00:00 GMT 2016 cexantus_DeWitt_Middle_School_reporter67 Paper birch Betula papyrifera 50% Color 42.475340000000000 -76.468270000000000 68394
Tue May 03 00:00:00 GMT 2016 cexantus_DeWitt_Middle_School_reporter67 Paper birch Betula papyrifera 50% Leaf Fall 42.475340000000000 -76.468270000000000 68395
Fri Jun 17 00:00:00 GMT 2016 cexantus_DeWitt_Middle_School_reporter52 Paper birch Betula papyrifera Leaves Unfolding (None) 42.443960000000000 -76.501880000000000 68406
Fri Jun 17 00:00:00 GMT 2016 cexantus_DeWitt_Middle_School_reporter52 Paper birch Betula papyrifera Leaves Changing Color (None) 42.443960000000000 -76.501880000000000 68407
Fri Jun 17 00:00:00 GMT 2016 cexantus_DeWitt_Middle_School_reporter52 Paper birch Betula papyrifera Leaves Dropping (None) 42.443960000000000 -76.501880000000000 68408
Fri Jun 17 00:00:00 GMT 2016 cexantus_DeWitt_Middle_School_reporter52 Paper birch Betula papyrifera Flowers (None) 42.443960000000000 -76.501880000000000 68409
Fri Jun 17 00:00:00 GMT 2016 cexantus_DeWitt_Middle_School_reporter52 Paper birch Betula papyrifera Fruit (None) 42.443960000000000 -76.501880000000000 68410
Mon Jun 20 00:00:00 GMT 2016 avanbala18 Paper birch Betula papyrifera Leaves Unfolding (Middle) 38.910640000000000 -77.537890000000000 69671
Mon Jun 20 00:00:00 GMT 2016 avanbala18 Paper birch Betula papyrifera Leaves Changing Color (Early) 38.910640000000000 -77.537890000000000 69672
Mon Jun 20 00:00:00 GMT 2016 avanbala18 Paper birch Betula papyrifera Leaves Dropping (None) 38.910640000000000 -77.537890000000000 69673
Mon Jun 20 00:00:00 GMT 2016 avanbala18 Paper birch Betula papyrifera Flowers (None) 38.910640000000000 -77.537890000000000 69674
Mon Jun 20 00:00:00 GMT 2016 avanbala18 Paper birch Betula papyrifera Fruit (None) 38.910640000000000 -77.537890000000000 69675
Thu Sep 29 00:00:00 GMT 2016 mthurber_Einstein_MS_reporter17 Paper birch Betula papyrifera Leaves Unfolding (Late) 47.770000000000000 -122.360000000000000 70284
Thu Sep 29 00:00:00 GMT 2016 mthurber_Einstein_MS_reporter17 Paper birch Betula papyrifera Leaves Changing Color (Early) 47.770000000000000 -122.360000000000000 70285
Thu Sep 29 00:00:00 GMT 2016 mthurber_Einstein_MS_reporter17 Paper birch Betula papyrifera Leaves Dropping (Early) 47.770000000000000 -122.360000000000000 70286
Thu Sep 29 00:00:00 GMT 2016 mthurber_Einstein_MS_reporter17 Paper birch Betula papyrifera Flowers (None) 47.770000000000000 -122.360000000000000 70287
Thu Sep 29 00:00:00 GMT 2016 mthurber_Einstein_MS_reporter17 Paper birch Betula papyrifera Fruit (None) 47.770000000000000 -122.360000000000000 70288
Mon Oct 31 00:00:00 GMT 2016 rshuman Paper birch Betula papyrifera Leaves Unfolding (Late) 44.686627000000000 -73.718734000000000 71813
Mon Oct 31 00:00:00 GMT 2016 rshuman Paper birch Betula papyrifera Leaves Changing Color (Late) 44.686627000000000 -73.718734000000000 71814
Mon Oct 31 00:00:00 GMT 2016 rshuman Paper birch Betula papyrifera Leaves Dropping (Late) 44.686627000000000 -73.718734000000000 71815
Mon Oct 31 00:00:00 GMT 2016 rshuman Paper birch Betula papyrifera Flowers (None) 44.686627000000000 -73.718734000000000 71816
Mon Oct 31 00:00:00 GMT 2016 rshuman Paper birch Betula papyrifera Fruit (None) 44.686627000000000 -73.718734000000000 71817
Fri Oct 21 00:00:00 GMT 2016 mdeleo Paper birch Betula papyrifera 50% Color 39.166039000000000 -86.515601000000000 73350
Sat Oct 29 00:00:00 GMT 2016 mdeleo Paper birch Betula papyrifera 50% Leaf Fall 39.166039000000000 -86.515601000000000 73351
Fri Oct 21 00:00:00 GMT 2016 mdeleo Paper birch Betula papyrifera 50% Color 39.164466000000000 -86.514797000000000 73352
Fri Oct 21 00:00:00 GMT 2016 mdeleo Paper birch Betula papyrifera 50% Leaf Fall 39.164466000000000 -86.514797000000000 73353
Wed Nov 30 00:00:00 GMT 2016 meghanpressley Paper birch Betula papyrifera Leaves Unfolding (None) 35.201650000000000 -81.141220000000000 74126
Wed Nov 30 00:00:00 GMT 2016 meghanpressley Paper birch Betula papyrifera Leaves Changing Color (Late) 35.201650000000000 -81.141220000000000 74127
Wed Nov 30 00:00:00 GMT 2016 meghanpressley Paper birch Betula papyrifera Leaves Dropping (Late) 35.201650000000000 -81.141220000000000 74128
Wed Nov 30 00:00:00 GMT 2016 meghanpressley Paper birch Betula papyrifera Flowers (None) 35.201650000000000 -81.141220000000000 74129
Wed Nov 30 00:00:00 GMT 2016 meghanpressley Paper birch Betula papyrifera Fruit (None) 35.201650000000000 -81.141220000000000 74130
Fri Mar 11 00:00:00 GMT 2016 Trailblazers Paper birch Betula papyrifera Leaves Unfolding (None) 36.193900000000000 -80.254040000000000 74447
Fri Mar 11 00:00:00 GMT 2016 Trailblazers Paper birch Betula papyrifera Leaves Changing Color (None) 36.193900000000000 -80.254040000000000 74448
Fri Mar 11 00:00:00 GMT 2016 Trailblazers Paper birch Betula papyrifera Leaves Dropping (None) 36.193900000000000 -80.254040000000000 74449
Fri Mar 11 00:00:00 GMT 2016 Trailblazers Paper birch Betula papyrifera Flowers (None) 36.193900000000000 -80.254040000000000 74450
Fri Mar 11 00:00:00 GMT 2016 Trailblazers Paper birch Betula papyrifera Fruit (None) 36.193900000000000 -80.254040000000000 74451
Sat Apr 15 00:00:00 GMT 2017 claireli232 Paper birch Betula papyrifera Bud Burst 37.445490000000000 -122.122170000000000 78036
Wed Mar 29 00:00:00 GMT 2017 mmilne_University_of_Indianapolis_reporter10 Paper birch Betula papyrifera Bud Burst 39.709650000000000 -86.134770000000000 80192
Wed Apr 12 00:00:00 GMT 2017 mmilne_University_of_Indianapolis_reporter10 Paper birch Betula papyrifera First Leaf 39.709650000000000 -86.134770000000000 80193
Tue Apr 25 00:00:00 GMT 2017 mmilne_University_of_Indianapolis_reporter10 Paper birch Betula papyrifera All Leaves Unfolded 39.709650000000000 -86.134770000000000 80194
Wed Apr 05 00:00:00 GMT 2017 mmilne_University_of_Indianapolis_reporter13 Paper birch Betula papyrifera Bud Burst 39.709650000000000 -86.134770000000000 80198
Wed Apr 12 00:00:00 GMT 2017 mmilne_University_of_Indianapolis_reporter13 Paper birch Betula papyrifera First Leaf 39.709650000000000 -86.134770000000000 80199
Wed Apr 26 00:00:00 GMT 2017 mmilne_University_of_Indianapolis_reporter13 Paper birch Betula papyrifera All Leaves Unfolded 39.709650000000000 -86.134770000000000 80200
Wed Mar 08 00:00:00 GMT 2017 mmilne_University_of_Indianapolis_reporter8 Paper birch Betula papyrifera Bud Burst 39.709650000000000 -86.134770000000000 80205
Wed Apr 19 00:00:00 GMT 2017 mmilne_University_of_Indianapolis_reporter8 Paper birch Betula papyrifera First Leaf 39.709650000000000 -86.134770000000000 80206
Wed Apr 19 00:00:00 GMT 2017 mmilne_University_of_Indianapolis_reporter8 Paper birch Betula papyrifera All Leaves Unfolded 39.709650000000000 -86.134770000000000 80207
Sat Apr 22 00:00:00 GMT 2017 mmilne_University_of_Indianapolis_reporter8 Paper birch Betula papyrifera First Flower 39.709650000000000 -86.134770000000000 80208
Wed Apr 26 00:00:00 GMT 2017 mmilne_University_of_Indianapolis_reporter8 Paper birch Betula papyrifera Full Flower 39.709650000000000 -86.134770000000000 80209
Wed Apr 12 00:00:00 GMT 2017 mmilne_University_of_Indianapolis_reporter8 Paper birch Betula papyrifera 50% Color 39.709650000000000 -86.134770000000000 80210
Wed Apr 05 00:00:00 GMT 2017 mmilne_University_of_Indianapolis_reporter4 Paper birch Betula papyrifera Bud Burst 39.709650000000000 -86.134770000000000 80216
Thu Mar 02 00:00:00 GMT 2017 mmilne_University_of_Indianapolis_reporter4 Paper birch Betula papyrifera First Leaf 39.709650000000000 -86.134770000000000 80217
Wed Apr 05 00:00:00 GMT 2017 mmilne_University_of_Indianapolis_reporter4 Paper birch Betula papyrifera All Leaves Unfolded 39.709650000000000 -86.134770000000000 80218
Sat Apr 01 00:00:00 GMT 2017 mmilne_University_of_Indianapolis_reporter4 Paper birch Betula papyrifera First Flower 39.709650000000000 -86.134770000000000 80219
Wed Apr 19 00:00:00 GMT 2017 mmilne_University_of_Indianapolis_reporter4 Paper birch Betula papyrifera Full Flower 39.709650000000000 -86.134770000000000 80220
Wed Mar 22 00:00:00 GMT 2017 mmilne_University_of_Indianapolis_reporter4 Paper birch Betula papyrifera First Ripe Fruit 39.709650000000000 -86.134770000000000 80221
Wed Apr 12 00:00:00 GMT 2017 mmilne_University_of_Indianapolis_reporter4 Paper birch Betula papyrifera Full Fruiting 39.709650000000000 -86.134770000000000 80222
Wed Mar 15 00:00:00 GMT 2017 mmilne_University_of_Indianapolis_reporter4 Paper birch Betula papyrifera 50% Color 39.709650000000000 -86.134770000000000 80223
Wed Mar 08 00:00:00 GMT 2017 mmilne_University_of_Indianapolis_reporter4 Paper birch Betula papyrifera 50% Leaf Fall 39.709650000000000 -86.134770000000000 80224
Wed Mar 29 00:00:00 GMT 2017 mmilne_University_of_Indianapolis_reporter20 Paper birch Betula papyrifera Bud Burst 39.709650000000000 -86.134770000000000 80232
Wed Apr 05 00:00:00 GMT 2017 mmilne_University_of_Indianapolis_reporter20 Paper birch Betula papyrifera First Leaf 39.709650000000000 -86.134770000000000 80233
Wed Apr 26 00:00:00 GMT 2017 mmilne_University_of_Indianapolis_reporter20 Paper birch Betula papyrifera All Leaves Unfolded 39.709650000000000 -86.134770000000000 80234
Wed Apr 05 00:00:00 GMT 2017 mmilne_University_of_Indianapolis_reporter20 Paper birch Betula papyrifera First Flower 39.709650000000000 -86.134770000000000 80235
Wed Apr 19 00:00:00 GMT 2017 mmilne_University_of_Indianapolis_reporter20 Paper birch Betula papyrifera Full Flower 39.709650000000000 -86.134770000000000 80236
Wed Mar 29 00:00:00 GMT 2017 mmilne_University_of_Indianapolis_reporter19 Paper birch Betula papyrifera Bud Burst 39.709650000000000 -86.134770000000000 80237
Wed Apr 05 00:00:00 GMT 2017 mmilne_University_of_Indianapolis_reporter19 Paper birch Betula papyrifera First Leaf 39.709650000000000 -86.134770000000000 80238
Wed Apr 26 00:00:00 GMT 2017 mmilne_University_of_Indianapolis_reporter19 Paper birch Betula papyrifera All Leaves Unfolded 39.709650000000000 -86.134770000000000 80239
Wed Apr 05 00:00:00 GMT 2017 mmilne_University_of_Indianapolis_reporter19 Paper birch Betula papyrifera First Flower 39.709650000000000 -86.134770000000000 80240
Wed Apr 12 00:00:00 GMT 2017 mmilne_University_of_Indianapolis_reporter19 Paper birch Betula papyrifera Full Flower 39.709650000000000 -86.134770000000000 80241
Wed Apr 12 00:00:00 GMT 2017 mmilne_University_of_Indianapolis_reporter9 Paper birch Betula papyrifera Bud Burst 39.709650000000000 -86.134770000000000 80248
Wed Apr 12 00:00:00 GMT 2017 mmilne_University_of_Indianapolis_reporter9 Paper birch Betula papyrifera First Leaf 39.709650000000000 -86.134770000000000 80249
Wed Apr 26 00:00:00 GMT 2017 mmilne_University_of_Indianapolis_reporter9 Paper birch Betula papyrifera All Leaves Unfolded 39.709650000000000 -86.134770000000000 80250
Wed Apr 05 00:00:00 GMT 2017 mmilne_University_of_Indianapolis_reporter2 Paper birch Betula papyrifera Bud Burst 39.709650000000000 -86.134770000000000 80258
Wed Apr 12 00:00:00 GMT 2017 mmilne_University_of_Indianapolis_reporter2 Paper birch Betula papyrifera First Leaf 39.709650000000000 -86.134770000000000 80259
Wed Apr 19 00:00:00 GMT 2017 mmilne_University_of_Indianapolis_reporter2 Paper birch Betula papyrifera All Leaves Unfolded 39.709650000000000 -86.134770000000000 80260
Wed Mar 22 00:00:00 GMT 2017 mmilne_University_of_Indianapolis_reporter18 Paper birch Betula papyrifera Bud Burst 39.709650000000000 -86.134770000000000 80261
Wed Apr 12 00:00:00 GMT 2017 mmilne_University_of_Indianapolis_reporter18 Paper birch Betula papyrifera First Leaf 39.709650000000000 -86.134770000000000 80262
Wed Apr 19 00:00:00 GMT 2017 mmilne_University_of_Indianapolis_reporter18 Paper birch Betula papyrifera All Leaves Unfolded 39.709650000000000 -86.134770000000000 80263
Wed Apr 05 00:00:00 GMT 2017 mmilne_University_of_Indianapolis_reporter18 Paper birch Betula papyrifera 50% Color 39.709650000000000 -86.134770000000000 80264
Wed Mar 29 00:00:00 GMT 2017 mmilne_University_of_Indianapolis_reporter16 Paper birch Betula papyrifera Bud Burst 39.709650000000000 -86.134770000000000 80328
Wed Apr 05 00:00:00 GMT 2017 mmilne_University_of_Indianapolis_reporter16 Paper birch Betula papyrifera First Leaf 39.709650000000000 -86.134770000000000 80329
Wed Apr 19 00:00:00 GMT 2017 mmilne_University_of_Indianapolis_reporter16 Paper birch Betula papyrifera All Leaves Unfolded 39.709650000000000 -86.134770000000000 80330
Wed Apr 05 00:00:00 GMT 2017 mmilne_University_of_Indianapolis_reporter14 Paper birch Betula papyrifera Bud Burst 39.709650000000000 -86.134770000000000 80429
Wed Apr 12 00:00:00 GMT 2017 mmilne_University_of_Indianapolis_reporter14 Paper birch Betula papyrifera First Leaf 39.709650000000000 -86.134770000000000 80430
Wed Apr 19 00:00:00 GMT 2017 mmilne_University_of_Indianapolis_reporter14 Paper birch Betula papyrifera All Leaves Unfolded 39.709650000000000 -86.134770000000000 80431
Fri Apr 28 00:00:00 GMT 2017 af95022534 Paper birch Betula papyrifera Leaves Unfolding (Late) 37.452810000000000 -122.135740000000000 80597
Fri Apr 28 00:00:00 GMT 2017 af95022534 Paper birch Betula papyrifera Leaves Changing Color (None) 37.452810000000000 -122.135740000000000 80598
Fri Apr 28 00:00:00 GMT 2017 af95022534 Paper birch Betula papyrifera Leaves Dropping (Early) 37.452810000000000 -122.135740000000000 80599
Fri Apr 28 00:00:00 GMT 2017 af95022534 Paper birch Betula papyrifera Flowers (None) 37.452810000000000 -122.135740000000000 80600
Fri Apr 28 00:00:00 GMT 2017 af95022534 Paper birch Betula papyrifera Fruit (None) 37.452810000000000 -122.135740000000000 80601
Mon Apr 24 00:00:00 GMT 2017 twhiting Paper birch Betula papyrifera Bud Burst 41.844118000000000 -71.438169000000000 80775
Tue May 02 00:00:00 GMT 2017 crudie Paper birch Betula papyrifera Leaves Unfolding (Middle) 46.597923000000000 -112.056330000000000 81166
Tue May 02 00:00:00 GMT 2017 crudie Paper birch Betula papyrifera Leaves Changing Color (Early) 46.597923000000000 -112.056330000000000 81167
Tue May 02 00:00:00 GMT 2017 crudie Paper birch Betula papyrifera Leaves Dropping (None) 46.597923000000000 -112.056330000000000 81168
Tue May 02 00:00:00 GMT 2017 crudie Paper birch Betula papyrifera Flowers (Early) 46.597923000000000 -112.056330000000000 81169
Tue May 02 00:00:00 GMT 2017 crudie Paper birch Betula papyrifera Fruit (None) 46.597923000000000 -112.056330000000000 81170
Thu Apr 13 00:00:00 GMT 2017 Daddyb Paper birch Betula papyrifera Bud Burst 46.588852000000000 -112.039521000000000 81748
Thu Apr 20 00:00:00 GMT 2017 Daddyb Paper birch Betula papyrifera First Leaf 46.588852000000000 -112.039521000000000 81749
Wed Apr 26 00:00:00 GMT 2017 Daddyb Paper birch Betula papyrifera All Leaves Unfolded 46.588852000000000 -112.039521000000000 81750

*All downloadable materials require the free Adobe Reader.